Cynthiana, IN (47612)

8:08 AM CDT on October 02, 2014 (GMT -0500)
SR 165 | Change Station
CLOSE
Current Station
Personal Weather Station
Location: Wadesville, IN
Elevation: 456 ft
Nearby Weather Stations

Elev 456 ft 38.11 °N, 87.79 °W | Updated 1 second ago

Mostly Cloudy
Mostly Cloudy
70.7 °F
Feels Like 74 °F
N
0.0
Wind Variable Wind from SSE
Gusts 5.4 mph

Today
High -- | Low -- °F
--% Chance of Precip.
Yesterday
High -- | Low -- °F
Precip. -- in
6:47 AM 6:32 PM
First Quarter, 58% visible
Pressure 29.96 in
Visibility 10.0 miles
Clouds Scattered Clouds 6000 ft
Scattered Clouds 10000 ft
Heat Index 74 °F
Dew Point 61 °F
Humidity 72%
Rainfall 0.00 in
Snow Depth Not available.
UV 1 out of 12
Pollen 5.20 out of 12
Air Quality Not available.
Flu Activity Not available.
METAR KEVV 021254Z 00000KT 10SM SCT060 SCT100 20/14 A2997 RMK AO2 SLP145 T02000144

More Conditions Fewer Conditions

Pressure 29.96 in
Visibility 10.0 miles
Clouds Scattered Clouds 6000 ft
Scattered Clouds 10000 ft
Heat Index 74 °F
Dew Point 61 °F
Humidity 72%
Rainfall 0.00 in
Snow Depth Not available.
UV 1 out of 12
Pollen 5.20 out of 12
Air Quality Not available.
Flu Activity Not available.
METAR KEVV 021254Z 00000KT 10SM SCT060 SCT100 20/14 A2997 RMK AO2 SLP145 T02000144

More Conditions Fewer Conditions

10-Day Weather Forecast

Almanac

Astronomy

Oct. 02, 2014 Rise Set
Actual Time 6:47 AM CDT 6:32 PM CDT
Civil Twilight 6:21 AM CDT 6:58 PM CDT
Nautical Twilight 5:50 AM CDT 7:28 PM CDT
Astronomical Twilight 5:19 AM CDT 7:59 PM CDT
Moon 2:33 PM CDT 12:08 AM CDT
Length of Visible Light 12h 37m
Length of Day
11h 44m
Tomorrow will be 2m 27s shorter.
First Quarter, 58% of the Moon is Illuminated
Today
First Quarter
Oct 8
Full
Oct 15
Last Quarter
Oct 23
New
Oct 30
First Quarter

Today's Extremes

State Highs State Lows

Community

WunderPhotos

Upload Photos

1,758,229 photos uploaded!

WunderBlogs® & News

By Dr. Jeff Masters
Director of Meteorology, Weather Underground
By Kari Strenfel
Meteorologist, Weather Underground
By Christopher C. Burt
Weather Historian, Weather Underground
October 2, 2014
October 2, 2014
October 2, 2014

Nearby

Snow Depth

Station Depth Elevation
No new snow has been reported.

Earthquake Activity

City Distance Mag. Time & Date
No recent earthquake activity has been reported nearby.
Minimum magnitude displayed is 2.5.

Coastal Water Temperatures

Place Temperature
No Stations Reporting

Nearby Weather Stations